< < Back
Terminal Aerodrome Forecast


Current Version              Previous Versions:   1  2  3  4  5  6  7  8  9  

Terminal Aerodrome Forecast

153
FTUS42 KFFC 042323
TAFMCN
TAF
KMCN 042323Z 0500/0524 30008G17KT P6SM FEW060
     FM050200 29006KT P6SM BKN060
     FM050900 30010G18KT P6SM SCT060
     FM051500 31012G20KT P6SM BKN060=

Latest METAR

563
SAUS80 KWBC 060000 RRC
MTRMCN
METAR KMCN 052353Z 02010KT 10SM FEW080 FEW090 BKN110 13/07 A2979 RMK AO2
PK WND 03028/2306 WSHFT 2307 SLP087 T01330072 10211 20133
53021


USA.gov is the U.S. government's official web portal to all federal, state and local government web resources and services.